TimePDT,TemperatureF,Dew PointF,Humidity,Sea Level PressureIn,VisibilityMPH,Wind Direction,Wind SpeedMPH,Gust SpeedMPH,PrecipitationIn,Events,Conditions,WindDirDegrees,DateUTC
12:15 AM,53.6,53.6,100,30.22,10.0,Calm,Calm,-,0.00,,Clear,0,2013-07-18 07:15:00
12:35 AM,53.6,53.6,100,30.22,10.0,Calm,Calm,-,0.00,,Partly Cloudy,0,2013-07-18 07:35:00
12:55 AM,53.6,53.6,100,30.22,10.0,Calm,Calm,-,0.00,,Partly Cloudy,0,2013-07-18 07:55:00
1:15 AM,53.6,53.6,100,30.22,10.0,Calm,Calm,-,0.00,,Partly Cloudy,0,2013-07-18 08:15:00
1:35 AM,53.6,53.6,100,30.22,10.0,SSW,3.5,-,0.00,,Scattered Clouds,210,2013-07-18 08:35:00
1:55 AM,53.6,53.6,100,30.22,10.0,Calm,Calm,-,0.00,,Mostly Cloudy,0,2013-07-18 08:55:00
2:15 AM,53.6,53.6,100,30.23,10.0,Calm,Calm,-,0.00,,Overcast,0,2013-07-18 09:15:00
2:35 AM,53.6,53.6,100,30.23,10.0,Calm,Calm,-,0.00,,Overcast,0,2013-07-18 09:35:00
2:55 AM,55.4,55.4,100,30.23,10.0,Calm,Calm,-,0.00,,Overcast,0,2013-07-18 09:55:00
3:15 AM,55.4,55.4,100,30.23,10.0,Calm,Calm,-,0.00,,Overcast,0,2013-07-18 10:15:00
3:35 AM,55.4,55.4,100,30.22,10.0,SSW,3.5,-,0.00,,Overcast,200,2013-07-18 10:35:00
3:55 AM,55.4,55.4,100,30.22,10.0,South,3.5,-,0.00,,Overcast,170,2013-07-18 10:55:00
4:15 AM,55.4,55.4,100,30.22,10.0,Calm,Calm,-,0.00,,Overcast,0,2013-07-18 11:15:00
4:35 AM,55.4,55.4,100,30.22,10.0,Calm,Calm,-,0.00,,Mostly Cloudy,0,2013-07-18 11:35:00
4:55 AM,57.2,57.2,100,30.23,10.0,Calm,Calm,-,0.00,,Mostly Cloudy,0,2013-07-18 11:55:00
5:15 AM,55.4,55.4,100,30.23,10.0,SW,3.5,-,0.00,,Mostly Cloudy,220,2013-07-18 12:15:00
5:35 AM,57.2,57.2,100,30.23,10.0,SSW,5.8,-,0.00,,Mostly Cloudy,210,2013-07-18 12:35:00
5:55 AM,57.2,57.2,100,30.23,10.0,SW,3.5,-,0.00,,Mostly Cloudy,220,2013-07-18 12:55:00
6:15 AM,57.2,57.2,100,30.24,10.0,SSW,3.5,-,0.00,,Mostly Cloudy,210,2013-07-18 13:15:00
6:35 AM,57.2,57.2,100,30.24,10.0,Calm,Calm,-,0.00,,Mostly Cloudy,0,2013-07-18 13:35:00
6:55 AM,57.2,57.2,100,30.24,10.0,Calm,Calm,-,0.00,,Overcast,0,2013-07-18 13:55:00
7:15 AM,59.0,57.2,94,30.24,10.0,Calm,Calm,-,0.00,,Overcast,0,2013-07-18 14:15:00
7:35 AM,59.0,57.2,94,30.24,10.0,SSW,3.5,-,0.00,,Mostly Cloudy,210,2013-07-18 14:35:00
7:55 AM,60.8,57.2,88,30.24,10.0,SSW,6.9,-,0.00,,Mostly Cloudy,200,2013-07-18 14:55:00
8:15 AM,60.8,57.2,88,30.24,10.0,SW,8.1,-,0.00,,Mostly Cloudy,220,2013-07-18 15:15:00
8:35 AM,60.8,57.2,88,30.25,10.0,SSW,9.2,-,0.00,,Mostly Cloudy,210,2013-07-18 15:35:00
8:55 AM,60.8,57.2,88,30.25,10.0,SW,8.1,-,0.00,,Scattered Clouds,220,2013-07-18 15:55:00
9:15 AM,60.8,57.2,88,30.25,10.0,SW,4.6,-,0.00,,Mostly Cloudy,220,2013-07-18 16:15:00
9:35 AM,62.6,57.2,82,30.25,10.0,SW,5.8,-,0.00,,Overcast,220,2013-07-18 16:35:00
9:55 AM,62.6,59.0,88,30.25,10.0,SSW,6.9,-,0.00,,Overcast,210,2013-07-18 16:55:00
10:15 AM,62.6,57.2,82,30.24,10.0,Calm,Calm,-,0.00,,Mostly Cloudy,0,2013-07-18 17:15:00
10:35 AM,62.6,57.2,82,30.24,10.0,Calm,Calm,-,0.00,,Overcast,0,2013-07-18 17:35:00
10:55 AM,64.4,57.2,77,30.24,10.0,SSW,4.6,-,0.00,,Overcast,210,2013-07-18 17:55:00
11:15 AM,64.4,57.2,77,30.24,10.0,SSE,4.6,-,0.00,,Overcast,160,2013-07-18 18:15:00
11:35 AM,66.2,59.0,78,30.23,10.0,SSW,4.6,-,0.00,,Overcast,210,2013-07-18 18:35:00
11:55 AM,66.2,59.0,78,30.23,10.0,South,4.6,-,0.00,,Overcast,190,2013-07-18 18:55:00
12:15 PM,66.2,59.0,78,30.23,10.0,ESE,3.5,-,0.00,,Overcast,110,2013-07-18 19:15:00
12:35 PM,69.8,60.8,73,30.23,10.0,SW,8.1,-,0.00,,Overcast,220,2013-07-18 19:35:00
12:55 PM,69.8,60.8,73,30.22,10.0,West,6.9,-,0.00,,Scattered Clouds,280,2013-07-18 19:55:00
1:15 PM,69.8,60.8,73,30.21,10.0,NW,4.6,-,0.00,,Clear,310,2013-07-18 20:15:00
1:35 PM,71.6,60.8,69,30.21,10.0,West,6.9,-,0.00,,Clear,270,2013-07-18 20:35:00
1:55 PM,71.6,60.8,69,30.21,10.0,West,6.9,-,0.00,,Clear,280,2013-07-18 20:55:00
2:15 PM,71.6,60.8,69,30.20,10.0,West,6.9,-,0.00,,Clear,280,2013-07-18 21:15:00
2:35 PM,71.6,60.8,69,30.20,10.0,West,8.1,-,0.00,,Clear,270,2013-07-18 21:35:00
3:35 PM,71.6,60.8,69,30.18,10.0,WSW,6.9,-,0.00,,Clear,250,2013-07-18 22:35:00
3:55 PM,73.4,60.8,65,30.18,10.0,WNW,6.9,-,0.00,,Clear,290,2013-07-18 22:55:00
4:15 PM,71.6,60.8,69,30.18,10.0,WNW,5.8,-,0.00,,Clear,290,2013-07-18 23:15:00
4:35 PM,73.4,60.8,65,30.17,10.0,West,5.8,-,0.00,,Clear,280,2013-07-18 23:35:00
4:55 PM,73.4,60.8,65,30.17,10.0,WSW,8.1,-,0.00,,Clear,240,2013-07-18 23:55:00
5:15 PM,73.4,60.8,65,30.16,10.0,SSW,4.6,-,0.00,,Clear,210,2013-07-19 00:15:00
5:35 PM,73.4,60.8,65,30.16,10.0,WSW,6.9,-,0.00,,Clear,240,2013-07-19 00:35:00
5:55 PM,73.4,60.8,65,30.16,10.0,WSW,6.9,-,0.00,,Clear,250,2013-07-19 00:55:00
6:15 PM,71.6,60.8,69,30.16,10.0,WSW,5.8,-,0.00,,Clear,250,2013-07-19 01:15:00
6:35 PM,69.8,60.8,73,30.16,10.0,SW,5.8,-,0.00,,Clear,220,2013-07-19 01:35:00
6:55 PM,69.8,59.0,68,30.15,10.0,SW,8.1,-,0.00,,Clear,230,2013-07-19 01:55:00
7:15 PM,68.0,60.8,78,30.15,10.0,SW,8.1,-,0.00,,Clear,230,2013-07-19 02:15:00
7:35 PM,66.2,59.0,78,30.15,10.0,SW,8.1,-,0.00,,Clear,230,2013-07-19 02:35:00
7:55 PM,64.4,59.0,83,30.15,10.0,SW,5.8,-,0.00,,Clear,220,2013-07-19 02:55:00
8:15 PM,64.4,59.0,83,30.15,10.0,SW,6.9,-,0.00,,Clear,220,2013-07-19 03:15:00
8:35 PM,62.6,59.0,88,30.15,10.0,SW,6.9,-,0.00,,Clear,220,2013-07-19 03:35:00
8:55 PM,60.8,59.0,94,30.16,10.0,SSW,8.1,-,0.00,,Clear,210,2013-07-19 03:55:00
9:15 PM,59.0,57.2,94,30.16,10.0,SW,6.9,-,0.00,,Clear,220,2013-07-19 04:15:00
9:35 PM,59.0,57.2,94,30.16,10.0,SSW,8.1,-,0.00,,Clear,210,2013-07-19 04:35:00
9:55 PM,59.0,57.2,94,30.17,10.0,South,3.5,-,0.00,,Clear,180,2013-07-19 04:55:00
10:15 PM,57.2,57.2,100,30.17,10.0,South,4.6,-,0.00,,Clear,180,2013-07-19 05:15:00
10:35 PM,55.4,55.4,100,30.17,10.0,Calm,Calm,-,0.00,,Clear,0,2013-07-19 05:35:00
10:55 PM,55.4,55.4,100,30.17,10.0,Calm,Calm,-,0.00,,Clear,0,2013-07-19 05:55:00
11:15 PM,55.4,55.4,100,30.16,10.0,Calm,Calm,-,0.00,,Clear,0,2013-07-19 06:15:00
11:35 PM,55.4,55.4,100,30.17,10.0,Calm,Calm,-,0.00,,Clear,0,2013-07-19 06:35:00
11:55 PM,55.4,55.4,100,30.17,10.0,Calm,Calm,-,0.00,,Clear,0,2013-07-19 06:55:00